createdAt,value
2017-04-26T00:00:17.232Z,3.50
2017-04-26T00:01:15.393Z,3.50
2017-04-26T00:02:14.328Z,3.40
2017-04-26T00:03:12.516Z,3.50
2017-04-26T00:04:10.682Z,3.50
2017-04-26T00:05:08.884Z,3.50
2017-04-26T00:06:07.053Z,3.60
2017-04-26T00:07:05.969Z,3.60
2017-04-26T00:08:04.160Z,3.50
2017-04-26T00:09:02.344Z,3.50
2017-04-26T00:10:01.264Z,3.40
2017-04-26T00:10:59.434Z,3.50
2017-04-26T00:11:57.565Z,3.60
2017-04-26T00:12:56.514Z,3.50
2017-04-26T00:13:54.635Z,3.50
2017-04-26T00:14:52.845Z,3.40
2017-04-26T00:15:51.580Z,3.40
2017-04-26T00:16:49.786Z,3.40
2017-04-26T00:17:47.959Z,3.40
2017-04-26T00:18:46.123Z,3.40
2017-04-26T00:19:44.284Z,3.40
2017-04-26T00:20:42.487Z,3.40
2017-04-26T00:21:40.707Z,3.50
2017-04-26T00:22:38.855Z,3.50
2017-04-26T00:23:36.961Z,3.40
2017-04-26T00:24:35.182Z,3.30
2017-04-26T00:25:33.301Z,3.30
2017-04-26T00:26:31.464Z,3.30
2017-04-26T00:27:29.616Z,3.30
2017-04-26T00:28:28.473Z,3.20
2017-04-26T00:29:26.621Z,3.30
2017-04-26T00:30:24.724Z,3.20
2017-04-26T00:31:23.629Z,3.10
2017-04-26T00:32:21.788Z,3.30
2017-04-26T00:33:19.951Z,3.30
2017-04-26T00:34:18.833Z,3.10
2017-04-26T00:35:17.703Z,3.10
2017-04-26T00:36:15.844Z,3.20
2017-04-26T00:37:14.751Z,3.00
2017-04-26T00:38:12.917Z,3.10
2017-04-26T00:39:11.087Z,3.10
2017-04-26T00:40:09.307Z,3.10
2017-04-26T00:41:07.875Z,3.10
2017-04-26T00:42:06.079Z,3.10
2017-04-26T00:43:04.966Z,3.10
2017-04-26T00:44:03.120Z,3.20
2017-04-26T00:45:01.293Z,3.20
2017-04-26T00:45:59.451Z,3.20
2017-04-26T00:46:58.336Z,3.00
2017-04-26T00:47:56.525Z,3.10
2017-04-26T00:48:54.668Z,3.10
2017-04-26T00:49:52.832Z,3.00
2017-04-26T00:50:50.984Z,3.10
2017-04-26T00:51:49.932Z,3.00
2017-04-26T00:52:48.065Z,3.10
2017-04-26T00:53:46.273Z,3.10
2017-04-26T00:54:44.383Z,3.00
2017-04-26T00:55:42.541Z,3.00
2017-04-26T00:56:40.722Z,3.00
2017-04-26T00:57:38.839Z,2.90
2017-04-26T00:58:37.716Z,2.90
2017-04-26T00:59:35.896Z,2.90
2017-04-26T01:00:34.088Z,3.00
2017-04-26T01:01:32.493Z,3.00
2017-04-26T01:02:30.744Z,3.00
2017-04-26T01:03:28.909Z,3.00
2017-04-26T01:04:27.188Z,3.00
2017-04-26T01:05:25.451Z,3.00
2017-04-26T01:06:23.589Z,3.00
2017-04-26T01:07:21.721Z,3.00
2017-04-26T01:08:19.913Z,3.00
2017-04-26T01:09:18.067Z,3.00
2017-04-26T01:10:16.245Z,3.10
2017-04-26T01:11:14.577Z,3.10
2017-04-26T01:12:13.452Z,3.10
2017-04-26T01:13:12.353Z,3.00
2017-04-26T01:14:10.512Z,3.10
2017-04-26T01:15:08.652Z,3.00
2017-04-26T01:16:06.840Z,3.00
2017-04-26T01:17:05.027Z,3.00
2017-04-26T01:18:03.229Z,3.00
2017-04-26T01:19:01.449Z,3.00
2017-04-26T01:19:59.544Z,3.00
2017-04-26T01:20:57.698Z,3.00
2017-04-26T01:21:55.850Z,2.90
2017-04-26T01:22:54.010Z,2.90
2017-04-26T01:23:52.219Z,2.90
2017-04-26T01:24:50.360Z,2.80
2017-04-26T01:25:48.516Z,2.80
2017-04-26T01:26:46.698Z,2.80
2017-04-26T01:27:44.830Z,2.70
2017-04-26T01:28:42.974Z,2.70
2017-04-26T01:29:41.161Z,2.70
2017-04-26T01:30:39.346Z,2.70
2017-04-26T01:31:37.526Z,2.70
2017-04-26T01:32:36.413Z,2.60
2017-04-26T01:33:34.580Z,2.60
2017-04-26T01:34:33.493Z,2.50
2017-04-26T01:35:31.676Z,2.60
2017-04-26T01:36:29.805Z,2.60
2017-04-26T01:37:28.773Z,2.50
2017-04-26T01:38:27.693Z,2.60
2017-04-26T01:39:25.825Z,2.70
2017-04-26T01:40:23.959Z,2.60
2017-04-26T01:41:22.087Z,2.50
2017-04-26T01:42:20.225Z,2.60
2017-04-26T01:43:19.116Z,2.40
2017-04-26T01:44:18.039Z,2.40
2017-04-26T01:45:16.203Z,2.40
2017-04-26T01:46:14.379Z,2.40
2017-04-26T01:47:12.577Z,2.50
2017-04-26T01:48:11.536Z,2.40
2017-04-26T01:49:09.785Z,2.50
2017-04-26T01:50:07.971Z,2.50
2017-04-26T01:51:06.192Z,2.40
2017-04-26T01:52:04.375Z,2.50
2017-04-26T01:53:02.540Z,2.50
2017-04-26T01:54:00.756Z,2.60
2017-04-26T01:54:59.653Z,2.50
2017-04-26T01:55:57.797Z,2.60
2017-04-26T01:56:56.007Z,2.60
2017-04-26T01:57:54.175Z,2.70
2017-04-26T01:58:52.334Z,2.60
2017-04-26T01:59:50.615Z,2.60
2017-04-26T02:00:48.862Z,2.70
2017-04-26T02:01:47.053Z,2.70
2017-04-26T02:02:45.161Z,2.70
2017-04-26T02:03:43.475Z,2.70
2017-04-26T02:04:41.740Z,2.70
2017-04-26T02:05:39.943Z,2.70
2017-04-26T02:06:38.880Z,2.60
2017-04-26T02:07:37.045Z,2.70
2017-04-26T02:08:35.233Z,2.80
2017-04-26T02:09:33.399Z,2.80
2017-04-26T02:10:31.605Z,2.70
2017-04-26T02:11:29.807Z,2.70
2017-04-26T02:12:28.017Z,2.70
2017-04-26T02:13:26.205Z,2.70
2017-04-26T02:14:24.307Z,2.70
2017-04-26T02:15:22.444Z,2.80
2017-04-26T02:16:20.664Z,2.70
2017-04-26T02:17:19.623Z,2.60
2017-04-26T02:18:17.798Z,2.60
2017-04-26T02:19:16.684Z,2.60
2017-04-26T02:20:15.759Z,2.60
2017-04-26T02:21:14.135Z,2.70
2017-04-26T02:22:12.300Z,2.80
2017-04-26T02:23:11.216Z,2.70
2017-04-26T02:24:09.484Z,2.70
2017-04-26T02:25:07.720Z,2.70
2017-04-26T02:26:06.607Z,2.60
2017-04-26T02:27:04.844Z,2.60
2017-04-26T02:28:03.132Z,2.50
2017-04-26T02:29:02.088Z,2.40
2017-04-26T02:30:00.272Z,2.50
2017-04-26T02:30:59.181Z,2.40
2017-04-26T02:31:57.363Z,2.50
2017-04-26T02:32:55.528Z,2.50
2017-04-26T02:33:53.644Z,2.50
2017-04-26T02:34:51.869Z,2.50
2017-04-26T02:35:50.020Z,2.50
2017-04-26T02:36:48.183Z,2.50
2017-04-26T02:37:46.395Z,2.60
2017-04-26T02:38:44.515Z,2.60
2017-04-26T02:39:42.699Z,2.60
2017-04-26T02:40:40.880Z,2.50
2017-04-26T02:41:39.005Z,2.50
2017-04-26T02:42:37.217Z,2.40
2017-04-26T02:43:36.076Z,2.50
2017-04-26T02:44:34.257Z,2.50
2017-04-26T02:45:32.476Z,2.60
2017-04-26T02:46:30.747Z,2.60
2017-04-26T02:47:28.999Z,2.60
2017-04-26T02:48:27.215Z,2.50
2017-04-26T02:49:26.164Z,2.50
2017-04-26T02:50:24.260Z,2.70
2017-04-26T02:51:23.150Z,2.70
2017-04-26T02:52:22.079Z,2.70
2017-04-26T02:53:20.236Z,2.80
2017-04-26T02:54:18.448Z,2.80
2017-04-26T02:55:16.597Z,2.80
2017-04-26T02:56:14.788Z,2.80
2017-04-26T02:57:12.929Z,2.80
2017-04-26T02:58:11.064Z,2.80
2017-04-26T02:59:09.232Z,2.70
2017-04-26T03:00:07.452Z,2.80
2017-04-26T03:01:06.372Z,2.60
2017-04-26T03:02:04.565Z,2.60
2017-04-26T03:03:02.724Z,2.50
2017-04-26T03:04:00.908Z,2.50
2017-04-26T03:04:59.050Z,2.50
2017-04-26T03:05:57.167Z,2.50
2017-04-26T03:06:55.319Z,2.50
2017-04-26T03:07:54.176Z,2.40
2017-04-26T03:08:52.328Z,2.50
2017-04-26T03:09:50.463Z,2.50
2017-04-26T03:10:48.661Z,2.60
2017-04-26T03:11:46.788Z,2.60
2017-04-26T03:12:44.955Z,2.50
2017-04-26T03:13:43.109Z,2.50
2017-04-26T03:14:41.298Z,2.50
2017-04-26T03:15:39.441Z,2.60
2017-04-26T03:16:37.604Z,2.60
2017-04-26T03:17:35.800Z,2.50
2017-04-26T03:18:33.980Z,2.50
2017-04-26T03:19:32.132Z,2.40
2017-04-26T03:20:30.364Z,2.40
2017-04-26T03:21:28.516Z,2.50
2017-04-26T03:22:26.679Z,2.50
2017-04-26T03:23:24.872Z,2.50
2017-04-26T03:24:23.054Z,2.40
2017-04-26T03:25:21.297Z,2.40
2017-04-26T03:26:19.459Z,2.50
2017-04-26T03:27:17.619Z,2.40
2017-04-26T03:28:15.828Z,2.40
2017-04-26T03:29:14.744Z,2.30
2017-04-26T03:30:12.960Z,2.40
2017-04-26T03:31:11.165Z,2.40
2017-04-26T03:32:09.380Z,2.40
2017-04-26T03:33:07.668Z,2.30
2017-04-26T03:34:05.816Z,2.30
2017-04-26T03:35:04.003Z,2.40
2017-04-26T03:36:02.893Z,2.30
2017-04-26T03:37:01.127Z,2.40
2017-04-26T03:37:59.246Z,2.40
2017-04-26T03:38:57.380Z,2.30
2017-04-26T03:39:56.293Z,2.30
2017-04-26T03:40:54.844Z,2.40
2017-04-26T03:41:53.733Z,2.40
2017-04-26T03:42:51.952Z,2.40
2017-04-26T03:43:50.116Z,2.40
2017-04-26T03:44:48.268Z,2.40
2017-04-26T03:45:46.468Z,2.40
2017-04-26T03:46:45.327Z,2.40
2017-04-26T03:47:43.471Z,2.40
2017-04-26T03:48:41.639Z,2.40
2017-04-26T03:49:39.862Z,2.30
2017-04-26T03:50:38.027Z,2.20
2017-04-26T03:51:36.189Z,2.20
2017-04-26T03:52:34.359Z,2.20
2017-04-26T03:53:32.483Z,2.20
2017-04-26T03:54:30.661Z,2.30
2017-04-26T03:55:29.587Z,2.20
2017-04-26T03:56:27.736Z,2.20
2017-04-26T03:57:26.663Z,2.30
2017-04-26T03:58:24.860Z,2.40
2017-04-26T03:59:23.810Z,2.30
2017-04-26T04:00:22.023Z,2.30
2017-04-26T04:01:20.221Z,2.20
2017-04-26T04:02:18.412Z,2.10
2017-04-26T04:03:16.620Z,2.10
2017-04-26T04:04:14.787Z,2.20
2017-04-26T04:05:12.972Z,2.20
2017-04-26T04:06:11.161Z,2.10
2017-04-26T04:07:09.360Z,2.10
2017-04-26T04:08:08.255Z,2.10
2017-04-26T04:09:06.389Z,2.20
2017-04-26T04:10:04.609Z,2.20
2017-04-26T04:11:02.787Z,2.20
2017-04-26T04:12:01.068Z,2.30
2017-04-26T04:12:59.222Z,2.30
2017-04-26T04:13:57.418Z,2.30
2017-04-26T04:14:56.346Z,2.30
2017-04-26T04:15:54.491Z,2.20
2017-04-26T04:16:52.651Z,2.20
2017-04-26T04:17:50.838Z,2.20
2017-04-26T04:18:49.033Z,2.30
2017-04-26T04:19:47.159Z,2.30
2017-04-26T04:20:45.365Z,2.30
2017-04-26T04:21:43.560Z,2.30
2017-04-26T04:22:41.750Z,2.40
2017-04-26T04:23:39.969Z,2.30
2017-04-26T04:24:38.144Z,2.30
2017-04-26T04:25:36.596Z,2.30
2017-04-26T04:26:34.766Z,2.10
2017-04-26T04:27:33.731Z,2.10
2017-04-26T04:28:31.893Z,2.20
2017-04-26T04:29:30.111Z,2.10
2017-04-26T04:30:28.537Z,2.20
2017-04-26T04:32:25.497Z,2.20
2017-04-26T04:33:23.613Z,2.20
2017-04-26T04:34:21.783Z,2.20
2017-04-26T04:35:20.006Z,2.20
2017-04-26T04:36:19.023Z,2.20
2017-04-26T04:37:17.181Z,2.20
2017-04-26T04:38:15.396Z,2.20
2017-04-26T04:39:13.549Z,2.20
2017-04-26T04:40:11.784Z,2.20
2017-04-26T04:41:09.895Z,2.20
2017-04-26T04:42:08.863Z,2.10
2017-04-26T04:43:07.044Z,2.20
2017-04-26T04:44:05.973Z,2.30
2017-04-26T04:45:04.124Z,2.40
2017-04-26T04:46:02.260Z,2.30
2017-04-26T04:47:01.206Z,2.20
2017-04-26T04:47:59.426Z,2.20
2017-04-26T04:48:57.604Z,2.30
2017-04-26T04:49:55.712Z,2.30
2017-04-26T04:50:53.888Z,2.40
2017-04-26T04:52:50.860Z,2.30
2017-04-26T04:53:49.075Z,2.30
2017-04-26T04:54:47.229Z,2.30
2017-04-26T04:55:45.428Z,2.50
2017-04-26T04:56:44.350Z,2.50
2017-04-26T04:57:42.572Z,2.50
2017-04-26T04:58:41.484Z,2.50
2017-04-26T04:59:39.683Z,2.50
2017-04-26T05:00:37.896Z,2.50
2017-04-26T05:01:36.126Z,2.40
2017-04-26T05:02:34.277Z,2.50
2017-04-26T05:03:32.467Z,2.50
2017-04-26T05:04:31.396Z,2.30
2017-04-26T05:05:29.577Z,2.40
2017-04-26T05:06:27.742Z,2.40
2017-04-26T05:07:25.882Z,2.30
2017-04-26T05:08:24.065Z,2.30
2017-04-26T05:09:22.218Z,2.30
2017-04-26T05:10:20.429Z,2.20
2017-04-26T05:11:18.552Z,2.30
2017-04-26T05:12:16.736Z,2.30
2017-04-26T05:13:14.916Z,2.40
2017-04-26T05:14:13.064Z,2.40
2017-04-26T05:15:11.177Z,2.50
2017-04-26T05:16:10.095Z,2.50
2017-04-26T05:17:08.232Z,2.50
2017-04-26T05:18:06.370Z,2.40
2017-04-26T05:19:05.287Z,2.40
2017-04-26T05:20:03.519Z,2.60
2017-04-26T05:21:02.488Z,2.50
2017-04-26T05:22:00.668Z,2.60
2017-04-26T05:22:59.556Z,2.60
2017-04-26T05:23:57.756Z,2.60
2017-04-26T05:24:55.954Z,2.60
2017-04-26T05:25:54.104Z,2.50
2017-04-26T05:26:52.296Z,2.50
2017-04-26T05:27:50.465Z,2.50
2017-04-26T05:28:49.370Z,2.60
2017-04-26T05:29:47.792Z,2.70
2017-04-26T05:30:45.945Z,2.80
2017-04-26T05:31:44.692Z,2.90
2017-04-26T05:32:42.972Z,2.90
2017-04-26T05:33:41.163Z,2.80
2017-04-26T05:34:39.329Z,2.70
2017-04-26T05:35:37.501Z,2.90
2017-04-26T05:36:36.497Z,2.90
2017-04-26T05:37:34.692Z,3.00
2017-04-26T05:38:32.897Z,2.90
2017-04-26T05:39:31.059Z,2.90
2017-04-26T05:40:29.216Z,2.90
2017-04-26T05:41:27.395Z,3.00
2017-04-26T05:42:25.505Z,2.90
2017-04-26T05:43:24.419Z,2.90
2017-04-26T05:44:22.612Z,2.90
2017-04-26T05:45:20.741Z,2.90
2017-04-26T05:46:18.916Z,2.80
2017-04-26T05:47:17.124Z,2.70
2017-04-26T05:48:16.066Z,2.70
2017-04-26T05:49:14.261Z,2.80
2017-04-26T05:50:13.227Z,2.80
2017-04-26T05:51:11.365Z,3.10
2017-04-26T05:52:09.584Z,3.20
2017-04-26T05:53:07.823Z,3.20
2017-04-26T05:54:06.021Z,3.10
2017-04-26T05:55:04.266Z,3.00
2017-04-26T05:56:03.186Z,2.90
2017-04-26T05:57:01.378Z,2.90
2017-04-26T05:57:59.614Z,3.00
2017-04-26T05:58:57.764Z,3.00
2017-04-26T05:59:56.691Z,2.90
2017-04-26T06:00:54.877Z,3.00
2017-04-26T06:01:53.087Z,3.10
2017-04-26T06:02:51.321Z,3.10
2017-04-26T06:03:49.481Z,3.10
2017-04-26T06:04:47.633Z,3.20
2017-04-26T06:05:45.855Z,3.20
2017-04-26T06:06:43.983Z,3.10
2017-04-26T06:07:42.941Z,3.30
2017-04-26T06:08:41.053Z,3.30
2017-04-26T06:09:39.937Z,3.20
2017-04-26T06:10:38.108Z,3.30
2017-04-26T06:11:36.317Z,3.30
2017-04-26T06:12:34.553Z,3.30
2017-04-26T06:13:32.790Z,3.40
2017-04-26T06:14:31.020Z,3.50
2017-04-26T06:15:29.216Z,3.60
2017-04-26T06:16:27.435Z,3.80
2017-04-26T06:17:25.628Z,3.60
2017-04-26T06:18:24.600Z,3.60
2017-04-26T06:19:22.793Z,3.50
2017-04-26T06:20:20.972Z,3.60
2017-04-26T06:21:19.180Z,3.70
2017-04-26T06:22:17.404Z,3.70
2017-04-26T06:23:15.583Z,3.70
2017-04-26T06:24:13.760Z,3.60
2017-04-26T06:25:11.952Z,3.50
2017-04-26T06:26:10.861Z,3.30
2017-04-26T06:27:09.052Z,3.40
2017-04-26T06:28:07.348Z,3.50
2017-04-26T06:29:05.511Z,3.60
2017-04-26T06:30:03.720Z,3.70
2017-04-26T06:31:01.938Z,3.70
2017-04-26T06:32:00.174Z,3.60
2017-04-26T06:32:58.363Z,3.50
2017-04-26T06:33:56.564Z,3.50
2017-04-26T06:34:54.728Z,3.30
2017-04-26T06:35:52.954Z,3.30
2017-04-26T06:36:51.164Z,3.40
2017-04-26T06:37:49.422Z,3.40
2017-04-26T06:38:47.668Z,3.50
2017-04-26T06:39:46.615Z,3.50
2017-04-26T06:40:44.835Z,3.70
2017-04-26T06:41:43.772Z,3.70
2017-04-26T06:42:42.038Z,3.70
2017-04-26T06:43:40.284Z,3.70
2017-04-26T06:44:38.554Z,3.80
2017-04-26T06:45:36.793Z,3.60
2017-04-26T06:46:34.966Z,3.80
2017-04-26T06:47:33.310Z,3.90
2017-04-26T06:48:31.580Z,3.90
2017-04-26T06:49:29.784Z,3.90
2017-04-26T06:50:27.992Z,3.90
2017-04-26T06:51:26.201Z,3.90
2017-04-26T06:52:24.385Z,3.90
2017-04-26T06:53:22.660Z,3.80
2017-04-26T06:54:20.824Z,3.80
2017-04-26T06:55:19.011Z,3.90
2017-04-26T06:56:17.231Z,4.00
2017-04-26T06:57:15.487Z,4.10
2017-04-26T06:58:13.751Z,4.10
2017-04-26T06:59:12.029Z,4.10
2017-04-26T07:01:09.113Z,4.00
2017-04-26T07:02:07.347Z,4.10
2017-04-26T07:03:07.374Z,4.20
2017-04-26T07:04:07.372Z,4.10
2017-04-26T07:05:06.379Z,4.20
2017-04-26T07:06:04.667Z,4.40
2017-04-26T07:07:02.985Z,4.40
2017-04-26T07:08:01.179Z,4.40
2017-04-26T07:08:59.412Z,4.40
2017-04-26T07:09:58.391Z,4.30
2017-04-26T07:10:56.651Z,4.30
2017-04-26T07:11:55.722Z,4.30
2017-04-26T07:12:54.236Z,4.40
2017-04-26T07:13:53.188Z,4.30
2017-04-26T07:14:52.174Z,4.40
2017-04-26T07:15:50.413Z,4.40
2017-04-26T07:16:49.406Z,4.50
2017-04-26T07:17:47.627Z,4.70
2017-04-26T07:18:45.854Z,4.70
2017-04-26T07:19:44.829Z,4.70
2017-04-26T07:20:43.032Z,4.80
2017-04-26T07:21:42.269Z,4.90
2017-04-26T07:22:41.240Z,4.90
2017-04-26T07:23:39.467Z,4.90
2017-04-26T07:24:37.708Z,4.90
2017-04-26T07:25:35.974Z,4.80
2017-04-26T07:26:34.943Z,4.90
2017-04-26T07:27:33.156Z,5.00
2017-04-26T07:28:31.444Z,5.10
2017-04-26T07:29:29.652Z,5.20
2017-04-26T07:30:28.827Z,5.20
2017-04-26T07:31:27.044Z,5.20
2017-04-26T07:32:25.298Z,5.20
2017-04-26T07:33:23.560Z,5.20
2017-04-26T07:34:21.792Z,5.10
2017-04-26T07:35:20.694Z,5.10
2017-04-26T07:36:18.969Z,5.00
2017-04-26T07:37:17.195Z,5.10
2017-04-26T07:38:15.472Z,5.10
2017-04-26T07:39:14.506Z,5.10
2017-04-26T07:41:12.414Z,5.30
2017-04-26T07:42:10.667Z,5.30
2017-04-26T07:43:08.916Z,5.50
2017-04-26T07:44:07.901Z,5.50
2017-04-26T07:46:04.942Z,5.50
2017-04-26T07:47:03.228Z,5.50
2017-04-26T07:48:02.173Z,5.40
2017-04-26T07:49:00.427Z,5.40
2017-04-26T07:49:58.625Z,5.50
2017-04-26T07:50:56.802Z,5.50
2017-04-26T07:51:55.792Z,5.40
2017-04-26T07:52:54.048Z,5.50
2017-04-26T07:53:53.007Z,5.50
2017-04-26T07:54:51.257Z,5.60
2017-04-26T07:55:49.487Z,5.60
2017-04-26T07:56:47.701Z,5.60
2017-04-26T07:57:45.925Z,5.50
2017-04-26T07:58:44.185Z,5.60
2017-04-26T07:59:42.369Z,5.80
2017-04-26T08:00:40.581Z,5.80
2017-04-26T08:01:38.817Z,5.80
2017-04-26T08:02:37.092Z,5.90
2017-04-26T08:03:36.070Z,5.90
2017-04-26T08:04:34.309Z,5.80
2017-04-26T08:05:32.512Z,5.80
2017-04-26T08:06:31.494Z,5.70
2017-04-26T08:07:29.737Z,5.80
2017-04-26T08:08:27.998Z,5.90
2017-04-26T08:09:26.229Z,5.80
2017-04-26T08:10:24.473Z,5.90
2017-04-26T08:11:22.688Z,5.90
2017-04-26T08:12:20.892Z,6.10
2017-04-26T08:13:19.078Z,6.20
2017-04-26T08:14:17.321Z,6.30
2017-04-26T08:15:15.532Z,6.30
2017-04-26T08:16:13.712Z,6.30
2017-04-26T08:17:11.878Z,6.40
2017-04-26T08:18:10.156Z,6.30
2017-04-26T08:19:08.418Z,6.30
2017-04-26T08:20:06.624Z,6.20
2017-04-26T08:21:04.843Z,6.20
2017-04-26T08:22:03.865Z,6.10
2017-04-26T08:23:02.091Z,6.20
2017-04-26T08:24:00.321Z,6.20
2017-04-26T08:24:58.622Z,6.20
2017-04-26T08:25:56.801Z,6.30
2017-04-26T08:26:54.939Z,6.40
2017-04-26T08:27:53.126Z,6.40
2017-04-26T08:28:52.193Z,6.30
2017-04-26T08:29:51.170Z,6.30
2017-04-26T08:30:49.436Z,6.40
2017-04-26T08:31:47.657Z,6.50
2017-04-26T08:32:46.500Z,6.50
2017-04-26T08:33:44.717Z,6.60
2017-04-26T08:34:42.954Z,6.70
2017-04-26T08:35:41.506Z,6.60
2017-04-26T08:36:40.471Z,6.50
2017-04-26T08:37:38.711Z,6.60
2017-04-26T08:38:36.993Z,6.50
2017-04-26T08:39:36.187Z,6.50
2017-04-26T08:40:34.447Z,6.40
2017-04-26T08:41:32.693Z,6.30
2017-04-26T08:43:29.772Z,6.70
2017-04-26T08:44:28.974Z,6.60
2017-04-26T08:45:27.169Z,6.70
2017-04-26T08:46:25.400Z,6.70
2017-04-26T08:47:23.665Z,6.80
2017-04-26T08:48:21.879Z,6.90
2017-04-26T08:49:20.096Z,7.00
2017-04-26T08:50:18.314Z,7.10
2017-04-26T08:51:16.560Z,7.00
2017-04-26T08:52:14.822Z,7.00
2017-04-26T08:53:13.112Z,6.90
2017-04-26T08:54:11.330Z,7.00
2017-04-26T08:55:09.609Z,7.10
2017-04-26T08:56:07.827Z,7.10
2017-04-26T08:57:06.758Z,7.10
2017-04-26T08:58:04.988Z,7.20
2017-04-26T08:59:03.400Z,7.40
2017-04-26T09:00:01.585Z,7.60
2017-04-26T09:00:59.730Z,7.70
2017-04-26T09:01:57.963Z,7.60
2017-04-26T09:02:56.201Z,7.70
2017-04-26T09:03:54.438Z,7.50
2017-04-26T09:04:52.703Z,7.40
2017-04-26T09:05:51.687Z,7.30
2017-04-26T09:06:49.943Z,7.40
2017-04-26T09:07:48.164Z,7.40
2017-04-26T09:08:46.381Z,7.60
2017-04-26T09:09:44.557Z,7.50
2017-04-26T09:10:42.733Z,7.30
2017-04-26T09:11:41.689Z,7.20
2017-04-26T09:12:39.946Z,7.30
2017-04-26T09:13:38.101Z,7.50
2017-04-26T09:14:36.348Z,7.70
2017-04-26T09:15:34.570Z,7.80
2017-04-26T09:16:34.059Z,8.00
2017-04-26T09:17:32.299Z,7.80
2017-04-26T09:18:30.832Z,7.60
2017-04-26T09:19:29.339Z,7.60
2017-04-26T09:20:27.553Z,7.70
2017-04-26T09:21:25.768Z,7.70
2017-04-26T09:22:24.765Z,7.60
2017-04-26T09:23:23.746Z,7.60
2017-04-26T09:24:22.721Z,7.50
2017-04-26T09:25:20.994Z,7.40
2017-04-26T09:26:19.149Z,7.40
2017-04-26T09:27:17.506Z,7.30
2017-04-26T09:28:15.733Z,7.40
2017-04-26T09:29:14.034Z,7.60
2017-04-26T09:31:11.065Z,7.70
2017-04-26T09:32:09.260Z,7.80
2017-04-26T09:33:08.181Z,7.70
2017-04-26T09:34:06.815Z,7.90
2017-04-26T09:35:05.702Z,8.00
2017-04-26T09:36:03.956Z,8.00
2017-04-26T09:37:02.931Z,7.90
2017-04-26T09:38:01.130Z,8.00
2017-04-26T09:38:59.337Z,8.00
2017-04-26T09:39:57.935Z,8.10
2017-04-26T09:40:57.029Z,8.20
2017-04-26T09:41:56.013Z,8.20
2017-04-26T09:42:54.484Z,8.30
2017-04-26T09:43:52.709Z,8.30
2017-04-26T09:44:50.926Z,8.20
2017-04-26T09:45:49.480Z,8.00
2017-04-26T09:46:48.482Z,8.10
2017-04-26T09:47:46.696Z,8.20
2017-04-26T09:48:44.890Z,8.20
2017-04-26T09:49:43.825Z,8.20
2017-04-26T09:50:42.044Z,8.30
2017-04-26T09:51:41.334Z,8.40
2017-04-26T09:52:40.239Z,8.40
2017-04-26T09:53:38.440Z,8.60
2017-04-26T09:54:36.622Z,8.50
2017-04-26T09:55:35.632Z,8.50
2017-04-26T09:56:33.872Z,8.60
2017-04-26T09:57:33.565Z,8.70
2017-04-26T09:58:31.786Z,8.80
2017-04-26T09:59:30.104Z,8.60
2017-04-26T10:00:29.079Z,8.50
2017-04-26T10:01:28.048Z,8.40
2017-04-26T10:02:26.314Z,8.30
2017-04-26T10:03:24.876Z,8.30
2017-04-26T10:04:23.046Z,8.50
2017-04-26T10:05:21.325Z,8.60
2017-04-26T10:06:20.287Z,8.60
2017-04-26T10:07:18.497Z,8.60
2017-04-26T10:08:16.721Z,8.70
2017-04-26T10:09:15.292Z,8.70
2017-04-26T10:10:13.573Z,8.80
2017-04-26T10:11:11.832Z,8.80
2017-04-26T10:12:10.746Z,8.40
2017-04-26T10:13:08.952Z,8.40
2017-04-26T10:14:07.180Z,8.30
2017-04-26T10:15:05.830Z,8.50
2017-04-26T10:16:04.054Z,8.70
2017-04-26T10:17:02.273Z,8.80
2017-04-26T10:18:00.526Z,9.00
2017-04-26T10:18:58.787Z,9.00
2017-04-26T10:21:59.407Z,8.90
2017-04-26T10:24:26.477Z,8.90
2017-04-26T10:26:53.508Z,8.80
2017-04-26T10:29:20.943Z,8.60
2017-04-26T10:31:47.985Z,8.60
2017-04-26T10:34:15.044Z,8.70
2017-04-26T10:36:42.511Z,8.90
2017-04-26T10:39:10.318Z,9.30
2017-04-26T10:41:37.440Z,9.70
2017-04-26T10:44:05.555Z,9.70
2017-04-26T10:46:32.590Z,9.30
2017-04-26T10:48:59.586Z,9.30
2017-04-26T10:51:27.020Z,9.20
2017-04-26T10:53:54.040Z,9.30
2017-04-26T10:56:21.044Z,9.20
2017-04-26T10:58:49.236Z,9.10
2017-04-26T11:01:16.228Z,9.20
2017-04-26T11:03:43.238Z,8.80
2017-04-26T11:06:10.701Z,9.00
2017-04-26T11:08:37.715Z,9.50
2017-04-26T11:11:05.451Z,9.30
2017-04-26T11:13:32.793Z,9.30
2017-04-26T11:15:59.792Z,9.50
2017-04-26T11:18:26.902Z,9.90
2017-04-26T11:20:54.546Z,9.70
2017-04-26T11:23:22.364Z,9.30
2017-04-26T11:25:50.117Z,9.20
2017-04-26T11:28:18.259Z,9.20
2017-04-26T11:30:45.273Z,9.10
2017-04-26T11:33:12.263Z,9.20
2017-04-26T11:35:40.328Z,9.00
2017-04-26T11:38:07.306Z,8.60
2017-04-26T11:40:35.051Z,8.50
2017-04-26T11:43:02.509Z,8.60
2017-04-26T11:45:30.303Z,8.90
2017-04-26T11:47:58.063Z,8.70
2017-04-26T11:50:26.121Z,8.80
2017-04-26T11:52:53.121Z,8.90
2017-04-26T11:55:20.122Z,8.90
2017-04-26T11:57:47.543Z,9.00
2017-04-26T12:00:14.565Z,9.50
2017-04-26T12:02:41.536Z,9.70
2017-04-26T12:05:08.820Z,10.20
2017-04-26T12:07:35.813Z,10.30
2017-04-26T12:10:02.848Z,10.50
2017-04-26T12:12:30.329Z,10.10
2017-04-26T12:15:04.316Z,9.90
2017-04-26T12:17:31.687Z,9.70
2017-04-26T12:19:58.681Z,9.50
2017-04-26T12:22:26.472Z,9.70
2017-04-26T12:24:53.877Z,9.80
2017-04-26T12:27:20.920Z,9.70
2017-04-26T12:29:47.917Z,9.70
2017-04-26T12:32:15.316Z,9.80
2017-04-26T12:34:42.379Z,9.80
2017-04-26T12:37:09.381Z,9.30
2017-04-26T12:39:36.751Z,9.30
2017-04-26T12:42:03.732Z,9.10
2017-04-26T12:44:30.769Z,9.00
2017-04-26T12:46:58.118Z,9.00
2017-04-26T12:49:25.086Z,8.90
2017-04-26T12:51:52.094Z,8.70
2017-04-26T12:54:19.569Z,8.40
2017-04-26T12:56:46.550Z,8.20
2017-04-26T12:59:13.592Z,8.30
2017-04-26T13:01:41.010Z,8.50
2017-04-26T13:04:08.023Z,8.60
2017-04-26T13:06:35.033Z,8.80
2017-04-26T13:09:02.469Z,9.20
2017-04-26T13:11:29.484Z,9.40
2017-04-26T13:13:56.513Z,9.50
2017-04-26T13:16:23.900Z,9.60
2017-04-26T13:18:50.923Z,9.80
2017-04-26T13:21:17.963Z,10.30
2017-04-26T13:23:47.327Z,10.30
2017-04-26T13:26:14.344Z,10.30
2017-04-26T13:28:41.399Z,9.90
2017-04-26T13:31:08.776Z,10.00
2017-04-26T13:33:35.767Z,10.40
2017-04-26T13:36:02.761Z,10.80
2017-04-26T13:38:30.215Z,10.50
2017-04-26T13:40:57.283Z,10.40
2017-04-26T13:43:24.309Z,10.80
2017-04-26T13:45:51.348Z,11.00
2017-04-26T13:48:18.345Z,11.20
2017-04-26T13:50:45.376Z,11.40
2017-04-26T13:53:12.356Z,11.70
2017-04-26T13:58:12.662Z,11.30
2017-04-26T14:00:39.686Z,11.30
2017-04-26T14:03:06.690Z,11.80
2017-04-26T14:05:34.802Z,12.30
2017-04-26T14:08:01.801Z,11.70
2017-04-26T14:10:29.572Z,11.10
2017-04-26T14:12:56.597Z,10.50
2017-04-26T14:15:23.592Z,10.00
2017-04-26T14:17:50.597Z,9.60
2017-04-26T14:20:17.617Z,9.90
2017-04-26T14:22:44.768Z,11.20
2017-04-26T14:25:11.816Z,11.20
2017-04-26T14:27:38.843Z,11.70
2017-04-26T14:30:05.844Z,12.10
2017-04-26T14:32:33.626Z,11.90
2017-04-26T14:35:01.393Z,12.00
2017-04-26T14:37:28.431Z,12.20
2017-04-26T14:39:56.201Z,12.70
2017-04-26T14:42:23.944Z,12.70
2017-04-26T14:44:51.705Z,13.20
2017-04-26T14:47:19.503Z,13.10
2017-04-26T14:49:46.510Z,12.90
2017-04-26T14:52:13.536Z,14.90
2017-04-26T14:54:40.554Z,15.40
2017-04-26T14:57:07.598Z,15.10
2017-04-26T14:59:34.602Z,15.40
2017-04-26T15:02:01.563Z,15.50
2017-04-26T15:04:29.394Z,16.50
2017-04-26T15:06:56.415Z,17.00
2017-04-26T15:09:23.431Z,16.60
2017-04-26T15:25:00.681Z,15.80
2017-04-26T15:27:27.705Z,14.50
2017-04-26T15:29:54.748Z,13.30
2017-04-26T15:32:22.093Z,15.90
2017-04-26T15:34:49.123Z,18.90
2017-04-26T15:37:17.539Z,17.50
2017-04-26T15:39:44.988Z,15.70
2017-04-26T15:42:11.984Z,15.30
2017-04-26T15:44:39.753Z,14.10
2017-04-26T15:49:40.123Z,17.60
2017-04-26T15:52:07.139Z,19.20
2017-04-26T15:54:34.897Z,20.60
2017-04-26T15:59:51.526Z,16.50
2017-04-26T16:02:18.605Z,15.10
2017-04-26T16:04:45.593Z,14.30
2017-04-26T16:07:12.595Z,13.10
2017-04-26T16:09:39.588Z,11.60
2017-04-26T16:12:14.479Z,11.10
2017-04-26T16:14:41.471Z,10.50
2017-04-26T16:17:09.237Z,10.60
2017-04-26T16:19:36.952Z,10.40
2017-04-26T16:22:04.491Z,10.60
2017-04-26T16:24:32.317Z,10.50
2017-04-26T16:27:00.094Z,10.10
2017-04-26T16:29:28.192Z,8.80
2017-04-26T16:31:55.208Z,8.30
2017-04-26T16:34:22.245Z,8.00
2017-04-26T16:36:49.979Z,7.60
2017-04-26T16:39:17.013Z,7.50
2017-04-26T16:41:44.025Z,7.20
2017-04-26T16:44:11.412Z,7.40
2017-04-26T16:46:38.385Z,7.70
2017-04-26T16:49:05.376Z,8.10
2017-04-26T16:51:32.817Z,8.40
2017-04-26T16:54:00.547Z,8.80
2017-04-26T16:56:27.526Z,10.20
2017-04-26T16:58:55.312Z,11.70
2017-04-26T17:01:22.345Z,12.70
2017-04-26T17:03:49.373Z,13.20
2017-04-26T17:06:16.431Z,13.60
2017-04-26T17:08:44.207Z,14.40
2017-04-26T17:11:11.922Z,14.40
2017-04-26T17:13:39.385Z,16.30
2017-04-26T17:16:06.423Z,16.80
2017-04-26T17:18:33.452Z,17.00
2017-04-26T17:21:00.469Z,17.60
2017-04-26T17:23:28.223Z,17.90
2017-04-26T17:25:55.227Z,17.40
2017-04-26T17:28:22.252Z,17.60